createdAt,value
2023-01-12T00:01:14.465Z,2.93
2023-01-12T00:03:47.052Z,2.95
2023-01-12T00:06:20.680Z,3.08
2023-01-12T00:08:53.464Z,3.21
2023-01-12T00:11:26.326Z,3.17
2023-01-12T00:13:58.995Z,3.30
2023-01-12T00:16:31.618Z,2.97
2023-01-12T00:19:18.700Z,3.28
2023-01-12T00:21:57.133Z,2.98
2023-01-12T00:24:38.889Z,3.26
2023-01-12T00:27:17.306Z,3.17
2023-01-12T00:29:50.197Z,3.35
2023-01-12T00:32:22.740Z,3.11
2023-01-12T00:34:55.322Z,3.48
2023-01-12T00:37:27.834Z,3.55
2023-01-12T00:40:02.914Z,3.84
2023-01-12T00:42:35.747Z,3.74
2023-01-12T00:45:09.635Z,3.61
2023-01-12T00:47:43.098Z,3.73
2023-01-12T00:50:17.393Z,3.59
2023-01-12T00:52:51.722Z,3.41
2023-01-12T00:55:24.297Z,3.54
2023-01-12T00:57:57.095Z,3.50
2023-01-12T01:00:29.679Z,3.70
2023-01-12T01:03:02.321Z,3.63
2023-01-12T01:05:34.950Z,3.71
2023-01-12T01:08:07.568Z,3.48
2023-01-12T01:10:40.076Z,3.76
2023-01-12T01:13:12.724Z,3.66
2023-01-12T01:15:45.377Z,3.58
2023-01-12T01:18:17.916Z,3.50
2023-01-12T01:20:50.417Z,3.82
2023-01-12T01:23:25.225Z,3.44
2023-01-12T01:26:02.569Z,3.22
2023-01-12T01:28:36.013Z,3.33
2023-01-12T01:31:13.465Z,3.34
2023-01-12T01:33:47.556Z,3.29
2023-01-12T01:36:20.907Z,2.98
2023-01-12T01:38:53.550Z,3.00
2023-01-12T01:41:31.634Z,2.77
2023-01-12T01:44:25.095Z,2.82
2023-01-12T01:47:08.127Z,2.69
2023-01-12T01:49:49.041Z,2.20
2023-01-12T01:52:28.771Z,2.30
2023-01-12T01:55:06.715Z,2.36
2023-01-12T01:57:50.209Z,2.22
2023-01-12T02:00:24.869Z,2.33
2023-01-12T02:03:01.573Z,2.36
2023-01-12T02:05:37.170Z,2.23
2023-01-12T02:08:35.048Z,2.42
2023-01-12T02:11:08.255Z,2.15
2023-01-12T02:13:40.881Z,2.27
2023-01-12T02:16:20.329Z,2.19
2023-01-12T02:19:14.400Z,2.09
2023-01-12T02:22:11.662Z,2.34
2023-01-12T02:24:47.065Z,2.43
2023-01-12T02:27:30.472Z,2.10
2023-01-12T02:30:24.897Z,2.39
2023-01-12T02:33:07.522Z,2.37
2023-01-12T02:35:42.588Z,2.38
2023-01-12T02:38:36.011Z,2.31
2023-01-12T02:41:26.691Z,2.13
2023-01-12T02:43:59.918Z,2.41
2023-01-12T02:46:33.726Z,2.28
2023-01-12T02:49:18.448Z,2.13
2023-01-12T02:51:58.035Z,2.51
2023-01-12T02:54:34.279Z,2.09
2023-01-12T02:57:10.470Z,2.17
2023-01-12T02:59:45.145Z,2.02
2023-01-12T03:02:24.710Z,2.03
2023-01-12T03:04:57.321Z,2.12
2023-01-12T03:07:45.175Z,2.18
2023-01-12T03:10:42.359Z,2.07
2023-01-12T03:13:16.582Z,2.18
2023-01-12T03:15:54.047Z,2.04
2023-01-12T03:18:29.239Z,2.02
2023-01-12T03:21:18.026Z,2.42
2023-01-12T03:23:58.878Z,2.22
2023-01-12T03:26:36.313Z,2.32
2023-01-12T03:29:29.261Z,2.52
2023-01-12T03:32:02.942Z,2.17
2023-01-12T03:34:37.630Z,2.33
2023-01-12T03:37:44.450Z,2.08
2023-01-12T03:40:44.352Z,2.17
2023-01-12T03:43:38.653Z,2.14
2023-01-12T03:46:32.797Z,2.04
2023-01-12T03:49:26.898Z,2.08
2023-01-12T03:52:03.551Z,1.89
2023-01-12T03:54:40.564Z,1.78
2023-01-12T03:57:14.722Z,1.66
2023-01-12T03:59:47.386Z,1.79
2023-01-12T04:02:20.046Z,1.64
2023-01-12T04:04:52.688Z,1.77
2023-01-12T04:07:25.302Z,1.79
2023-01-12T04:09:57.922Z,1.74
2023-01-12T04:12:30.502Z,1.83
2023-01-12T04:15:03.323Z,1.71
2023-01-12T04:17:35.936Z,2.08
2023-01-12T04:20:09.355Z,2.00
2023-01-12T04:22:41.969Z,1.76
2023-01-12T04:25:18.366Z,1.82
2023-01-12T04:27:56.014Z,1.85
2023-01-12T04:30:31.216Z,1.83
2023-01-12T04:33:08.167Z,1.99
2023-01-12T04:35:40.847Z,1.92
2023-01-12T04:38:13.410Z,1.90
2023-01-12T04:40:46.026Z,1.73
2023-01-12T04:43:18.682Z,1.73
2023-01-12T04:45:51.375Z,1.96
2023-01-12T04:48:25.237Z,1.85
2023-01-12T04:51:00.469Z,2.07
2023-01-12T04:53:33.180Z,1.82
2023-01-12T04:56:07.150Z,1.65
2023-01-12T04:58:39.853Z,1.83
2023-01-12T05:01:18.488Z,1.72
2023-01-12T05:03:51.215Z,1.84
2023-01-12T05:06:24.348Z,1.81
2023-01-12T05:08:57.015Z,1.73
2023-01-12T05:11:30.203Z,1.88
2023-01-12T05:14:02.840Z,1.73
2023-01-12T05:16:35.500Z,1.70
2023-01-12T05:19:09.130Z,1.52
2023-01-12T05:21:41.672Z,1.67
2023-01-12T05:24:14.273Z,1.49
2023-01-12T05:26:46.923Z,1.55
2023-01-12T05:29:19.490Z,1.58
2023-01-12T05:31:52.343Z,1.61
2023-01-12T05:34:24.940Z,1.74
2023-01-12T05:36:57.591Z,2.01
2023-01-12T05:39:30.204Z,1.67
2023-01-12T05:42:02.803Z,1.62
2023-01-12T05:44:35.439Z,1.53
2023-01-12T05:47:08.036Z,1.85
2023-01-12T05:49:40.624Z,1.76
2023-01-12T05:52:13.221Z,1.63
2023-01-12T05:54:45.823Z,1.82
2023-01-12T05:57:18.506Z,1.86
2023-01-12T05:59:51.125Z,2.08
2023-01-12T06:02:23.831Z,1.87
2023-01-12T06:04:56.533Z,1.83
2023-01-12T06:07:29.183Z,1.72
2023-01-12T06:10:01.856Z,1.78
2023-01-12T06:12:34.436Z,1.89
2023-01-12T06:15:07.526Z,1.86
2023-01-12T06:17:40.202Z,1.91
2023-01-12T06:20:13.588Z,1.63
2023-01-12T06:22:46.216Z,1.68
2023-01-12T06:25:19.094Z,1.67
2023-01-12T06:27:51.703Z,1.84
2023-01-12T06:30:24.777Z,1.74
2023-01-12T06:33:01.876Z,1.85
2023-01-12T06:35:34.513Z,1.90
2023-01-12T06:38:07.123Z,2.10
2023-01-12T06:40:39.675Z,1.82
2023-01-12T06:43:12.301Z,2.01
2023-01-12T06:45:45.691Z,1.91
2023-01-12T06:48:18.555Z,1.99
2023-01-12T06:50:52.801Z,2.07
2023-01-12T06:53:25.415Z,2.00
2023-01-12T06:55:58.000Z,2.02
2023-01-12T06:58:30.693Z,2.39
2023-01-12T07:01:04.621Z,2.36
2023-01-12T07:03:37.268Z,2.15
2023-01-12T07:06:09.868Z,2.64
2023-01-12T07:08:42.526Z,2.40
2023-01-12T07:11:15.190Z,2.47
2023-01-12T07:13:47.796Z,2.54
2023-01-12T07:16:20.458Z,2.56
2023-01-12T07:18:53.103Z,2.57
2023-01-12T07:21:25.688Z,2.51
2023-01-12T07:23:58.251Z,2.42
2023-01-12T07:26:30.832Z,2.72
2023-01-12T07:29:03.941Z,2.83
2023-01-12T07:31:36.745Z,3.07
2023-01-12T07:34:09.366Z,2.85
2023-01-12T07:36:42.088Z,2.75
2023-01-12T07:39:14.685Z,2.88
2023-01-12T07:41:47.317Z,2.50
2023-01-12T07:44:20.080Z,2.76
2023-01-12T07:46:52.692Z,2.63
2023-01-12T07:49:26.302Z,2.44
2023-01-12T07:51:59.091Z,2.54
2023-01-12T07:54:31.709Z,2.62
2023-01-12T07:57:07.012Z,2.61
2023-01-12T07:59:39.704Z,2.52
2023-01-12T08:02:14.176Z,2.47
2023-01-12T08:04:47.415Z,2.53
2023-01-12T08:07:20.145Z,2.59
2023-01-12T08:09:52.871Z,2.38
2023-01-12T08:12:25.693Z,2.47
2023-01-12T08:14:58.375Z,1.98
2023-01-12T08:17:40.326Z,1.78
2023-01-12T08:20:26.717Z,1.80
2023-01-12T08:23:08.037Z,2.02
2023-01-12T08:25:46.088Z,1.65
2023-01-12T08:28:34.147Z,1.73
2023-01-12T08:31:07.948Z,1.88
2023-01-12T08:33:44.588Z,1.84
2023-01-12T08:36:18.033Z,1.79
2023-01-12T08:38:50.819Z,1.72
2023-01-12T08:41:24.456Z,1.86
2023-01-12T08:43:57.220Z,1.80
2023-01-12T08:46:29.757Z,1.76
2023-01-12T08:49:07.340Z,2.13
2023-01-12T08:51:41.967Z,2.26
2023-01-12T08:54:17.228Z,2.12
2023-01-12T08:56:50.511Z,2.04
2023-01-12T08:59:26.179Z,2.29
2023-01-12T09:01:59.024Z,2.19
2023-01-12T09:04:31.979Z,2.16
2023-01-12T09:07:04.684Z,2.13
2023-01-12T09:09:37.979Z,2.14
2023-01-12T09:12:10.604Z,1.91
2023-01-12T09:14:43.220Z,2.03
2023-01-12T09:17:15.829Z,2.16
2023-01-12T09:19:48.668Z,1.95
2023-01-12T09:22:21.289Z,1.96
2023-01-12T09:24:53.872Z,1.84
2023-01-12T09:27:26.482Z,1.94
2023-01-12T09:29:59.141Z,1.90
2023-01-12T09:32:36.902Z,1.98
2023-01-12T09:35:09.908Z,1.92
2023-01-12T09:37:42.501Z,1.80
2023-01-12T09:40:16.170Z,1.78
2023-01-12T09:42:52.665Z,1.58
2023-01-12T09:45:25.474Z,1.37
2023-01-12T09:47:59.435Z,1.28
2023-01-12T09:50:38.460Z,1.28
2023-01-12T09:53:17.207Z,1.23
2023-01-12T09:56:13.542Z,1.17
2023-01-12T09:59:02.797Z,1.26
2023-01-12T10:01:37.397Z,1.32
2023-01-12T10:04:10.203Z,1.25
2023-01-12T10:06:42.843Z,1.21
2023-01-12T10:09:19.875Z,1.49
2023-01-12T10:12:03.292Z,1.57
2023-01-12T10:14:49.707Z,1.49
2023-01-12T10:17:25.097Z,1.51
2023-01-12T10:20:02.320Z,1.51
2023-01-12T10:22:44.253Z,1.72
2023-01-12T10:25:29.550Z,1.84
2023-01-12T10:28:21.530Z,1.76
2023-01-12T10:30:56.342Z,1.84
2023-01-12T10:33:34.250Z,1.58
2023-01-12T10:36:17.693Z,1.48
2023-01-12T10:39:02.542Z,1.54
2023-01-12T10:41:36.523Z,1.49
2023-01-12T10:44:17.323Z,1.59
2023-01-12T10:47:09.590Z,1.35
2023-01-12T10:49:42.214Z,1.81
2023-01-12T10:52:37.775Z,1.43
2023-01-12T10:55:19.637Z,1.35
2023-01-12T10:57:52.837Z,1.54
2023-01-12T11:00:28.268Z,1.44
2023-01-12T11:03:00.951Z,1.53
2023-01-12T11:05:36.642Z,1.66
2023-01-12T11:08:38.464Z,1.65
2023-01-12T11:11:37.127Z,1.57
2023-01-12T11:14:25.563Z,1.98
2023-01-12T11:17:24.679Z,1.91
2023-01-12T11:20:01.529Z,1.75
2023-01-12T11:22:37.558Z,1.72
2023-01-12T11:25:22.467Z,1.91
2023-01-12T11:28:10.428Z,1.67
2023-01-12T11:31:24.494Z,1.76
2023-01-12T11:34:24.569Z,2.04
2023-01-12T11:37:11.006Z,1.70
2023-01-12T11:39:49.837Z,1.60
2023-01-12T11:42:28.109Z,1.36
2023-01-12T11:45:12.511Z,1.43
2023-01-12T11:48:07.215Z,1.37
2023-01-12T11:50:40.712Z,1.57
2023-01-12T11:53:22.306Z,1.30
2023-01-12T11:56:43.433Z,1.31
2023-01-12T11:59:29.837Z,1.70
2023-01-12T12:02:27.169Z,1.81
2023-01-12T12:05:18.137Z,1.83
2023-01-12T12:08:15.958Z,1.80
2023-01-12T12:11:03.540Z,1.94
2023-01-12T12:13:59.794Z,1.86
2023-01-12T12:17:14.341Z,1.72
2023-01-12T12:20:28.094Z,1.65
2023-01-12T12:23:18.678Z,1.64
2023-01-12T12:26:00.485Z,1.72
2023-01-12T12:28:33.294Z,1.48
2023-01-12T12:31:27.579Z,1.50
2023-01-12T12:34:11.840Z,1.64
2023-01-12T12:36:59.556Z,1.73
2023-01-12T12:39:55.981Z,1.66
2023-01-12T12:42:51.724Z,1.59
2023-01-12T12:45:51.721Z,1.64
2023-01-12T12:48:58.639Z,1.76
2023-01-12T12:51:34.608Z,1.68
2023-01-12T12:54:16.534Z,1.47
2023-01-12T12:56:50.508Z,1.44
2023-01-12T12:59:31.978Z,1.48
2023-01-12T13:02:04.798Z,1.46
2023-01-12T13:04:43.612Z,1.59
2023-01-12T13:07:21.236Z,1.55
2023-01-12T13:10:15.523Z,1.44
2023-01-12T13:13:01.264Z,1.63
2023-01-12T13:15:34.740Z,1.81
2023-01-12T13:19:02.522Z,1.57
2023-01-12T13:21:56.257Z,1.86
2023-01-12T13:24:40.431Z,1.78
2023-01-12T13:27:58.294Z,1.72
2023-01-12T13:30:30.900Z,1.91
2023-01-12T13:33:15.340Z,1.93
2023-01-12T13:35:47.978Z,1.90
2023-01-12T13:38:36.573Z,1.97
2023-01-12T13:41:15.059Z,1.82
2023-01-12T13:43:47.671Z,1.96
2023-01-12T13:46:46.547Z,2.04
2023-01-12T13:49:27.223Z,1.91
2023-01-12T13:52:20.528Z,1.85
2023-01-12T13:54:53.288Z,1.80
2023-01-12T13:57:30.109Z,1.92
2023-01-12T14:00:07.334Z,2.18
2023-01-12T14:02:45.260Z,1.82
2023-01-12T14:05:42.745Z,1.76
2023-01-12T14:08:50.713Z,1.76
2023-01-12T14:12:04.042Z,1.95
2023-01-12T14:15:18.246Z,2.00
2023-01-12T14:17:51.138Z,1.94
2023-01-12T14:20:27.061Z,1.91
2023-01-12T14:23:17.661Z,1.74
2023-01-12T14:26:07.390Z,1.52
2023-01-12T14:28:42.137Z,1.90
2023-01-12T14:31:39.124Z,1.97
2023-01-12T14:34:29.853Z,2.04
2023-01-12T14:37:06.488Z,1.96
2023-01-12T14:39:39.119Z,2.03
2023-01-12T14:42:20.037Z,2.02
2023-01-12T14:44:57.533Z,1.95
2023-01-12T14:47:34.629Z,1.91
2023-01-12T14:50:16.018Z,1.96
2023-01-12T14:52:49.049Z,2.01
2023-01-12T14:55:24.430Z,2.08
2023-01-12T14:58:01.776Z,2.27
2023-01-12T15:00:36.594Z,2.12
2023-01-12T15:03:26.336Z,1.92
2023-01-12T15:06:01.638Z,2.07
2023-01-12T15:08:34.323Z,2.11
2023-01-12T15:11:09.405Z,2.17
2023-01-12T15:13:42.061Z,1.99
2023-01-12T15:16:14.710Z,2.29
2023-01-12T15:18:47.557Z,2.39
2023-01-12T15:21:20.568Z,2.48
2023-01-12T15:23:53.213Z,2.37
2023-01-12T15:26:25.875Z,2.48
2023-01-12T15:28:58.494Z,2.33
2023-01-12T15:31:38.686Z,2.09
2023-01-12T15:34:12.068Z,2.20
2023-01-12T15:36:44.727Z,2.43
2023-01-12T15:39:17.404Z,2.45
2023-01-12T15:41:50.500Z,2.28
2023-01-12T15:44:23.170Z,2.40
2023-01-12T15:46:55.843Z,2.12
2023-01-12T15:49:28.455Z,2.21
2023-01-12T15:52:01.061Z,2.41
2023-01-12T15:54:33.700Z,2.31
2023-01-12T15:57:08.244Z,2.59
2023-01-12T15:59:41.287Z,2.59
2023-01-12T16:02:36.818Z,2.48
2023-01-12T16:05:11.256Z,2.25
2023-01-12T16:07:43.850Z,2.76
2023-01-12T16:10:17.725Z,2.81
2023-01-12T16:12:50.432Z,2.54
2023-01-12T16:15:25.148Z,2.48
2023-01-12T16:17:57.771Z,2.75
2023-01-12T16:20:30.409Z,2.55
2023-01-12T16:23:02.989Z,2.29
2023-01-12T16:25:36.951Z,2.47
2023-01-12T16:28:10.889Z,2.65
2023-01-12T16:30:47.173Z,2.58
2023-01-12T16:33:19.752Z,2.25
2023-01-12T16:35:55.248Z,2.51
2023-01-12T16:38:28.378Z,2.32
2023-01-12T16:41:13.278Z,2.27
2023-01-12T16:43:46.416Z,2.64
2023-01-12T16:46:18.997Z,2.42
2023-01-12T16:48:51.644Z,2.57
2023-01-12T16:51:24.263Z,2.61
2023-01-12T16:53:56.903Z,2.78
2023-01-12T16:56:29.529Z,2.38
2023-01-12T16:59:02.124Z,2.34
2023-01-12T17:01:35.121Z,2.42
2023-01-12T17:04:07.799Z,2.39
2023-01-12T17:06:40.780Z,2.37
2023-01-12T17:09:14.819Z,2.24
2023-01-12T17:11:50.034Z,2.28
2023-01-12T17:14:22.787Z,2.14
2023-01-12T17:16:58.007Z,2.10
2023-01-12T17:19:33.879Z,2.17
2023-01-12T17:22:07.659Z,2.37
2023-01-12T17:24:40.826Z,2.47
2023-01-12T17:27:13.521Z,2.62
2023-01-12T17:29:50.149Z,2.65
2023-01-12T17:32:22.944Z,2.40
2023-01-12T17:34:55.786Z,2.36
2023-01-12T17:37:28.368Z,1.94
2023-01-12T17:40:00.975Z,2.03
2023-01-12T17:42:33.598Z,2.47
2023-01-12T17:45:06.856Z,2.37
2023-01-12T17:47:39.450Z,2.38
2023-01-12T17:50:12.074Z,2.55
2023-01-12T17:52:44.696Z,2.66
2023-01-12T17:55:17.536Z,11.78
2023-01-12T17:57:50.169Z,4.81
2023-01-12T18:00:23.189Z,3.70
2023-01-12T18:02:55.826Z,6.05
2023-01-12T18:05:29.739Z,6.20
2023-01-12T18:08:02.386Z,5.65
2023-01-12T18:10:34.969Z,3.06
2023-01-12T18:13:07.699Z,6.93
2023-01-12T18:15:40.632Z,3.49
2023-01-12T18:18:13.266Z,2.30
2023-01-12T18:20:45.871Z,3.89
2023-01-12T18:23:18.645Z,19.87
2023-01-12T18:25:51.238Z,15.38
2023-01-12T18:28:23.831Z,10.45
2023-01-12T18:31:11.032Z,3.10
2023-01-12T18:33:44.533Z,2.42
2023-01-12T18:36:19.863Z,2.77
2023-01-12T18:38:53.689Z,2.17
2023-01-12T18:41:26.406Z,2.09
2023-01-12T18:43:59.455Z,1.81
2023-01-12T18:46:33.858Z,1.87
2023-01-12T18:49:06.442Z,1.73
2023-01-12T18:51:39.064Z,1.89
2023-01-12T18:54:11.721Z,1.94
2023-01-12T18:56:44.311Z,2.00
2023-01-12T18:59:17.268Z,2.10
2023-01-12T19:01:50.064Z,2.22
2023-01-12T19:04:22.773Z,1.95
2023-01-12T19:06:55.407Z,2.12
2023-01-12T19:09:28.069Z,2.20
2023-01-12T19:12:01.666Z,2.18
2023-01-12T19:14:34.561Z,3.76
2023-01-12T19:17:07.176Z,3.53
2023-01-12T19:19:42.255Z,2.46
2023-01-12T19:22:14.933Z,2.23
2023-01-12T19:24:47.557Z,2.34
2023-01-12T19:27:20.253Z,2.51
2023-01-12T19:29:54.859Z,2.50
2023-01-12T19:32:27.628Z,2.49
2023-01-12T19:35:10.206Z,3.47
2023-01-12T19:37:47.959Z,3.69
2023-01-12T19:40:20.597Z,3.98
2023-01-12T19:42:53.221Z,3.34
2023-01-12T19:45:25.963Z,2.95
2023-01-12T19:47:58.561Z,2.93
2023-01-12T19:50:31.263Z,2.89
2023-01-12T19:53:06.230Z,2.85
2023-01-12T19:55:41.918Z,2.91
2023-01-12T19:58:14.621Z,2.92
2023-01-12T20:00:48.507Z,3.15
2023-01-12T20:03:23.906Z,3.18
2023-01-12T20:05:56.506Z,3.09
2023-01-12T20:08:29.127Z,3.19
2023-01-12T20:11:05.167Z,2.96
2023-01-12T20:13:38.250Z,3.22
2023-01-12T20:16:10.977Z,3.34
2023-01-12T20:18:43.705Z,3.21
2023-01-12T20:21:16.425Z,3.15
2023-01-12T20:23:49.059Z,3.12
2023-01-12T20:26:21.702Z,3.14
2023-01-12T20:28:54.394Z,3.09
2023-01-12T20:31:27.625Z,3.13
2023-01-12T20:34:00.278Z,2.89
2023-01-12T20:36:33.428Z,2.90
2023-01-12T20:39:07.313Z,3.02
2023-01-12T20:41:41.621Z,2.98
2023-01-12T20:44:17.092Z,2.97
2023-01-12T20:46:49.837Z,3.11
2023-01-12T20:49:22.639Z,2.95
2023-01-12T20:51:58.653Z,2.97
2023-01-12T20:54:31.267Z,3.33
2023-01-12T20:57:03.963Z,3.31
2023-01-12T20:59:37.526Z,3.42
2023-01-12T21:02:21.183Z,3.19
2023-01-12T21:04:53.913Z,3.17
2023-01-12T21:07:26.509Z,3.33
2023-01-12T21:09:59.383Z,3.19
2023-01-12T21:12:32.040Z,3.50
2023-01-12T21:15:05.207Z,3.46
2023-01-12T21:17:37.857Z,3.51
2023-01-12T21:20:11.352Z,3.60
2023-01-12T21:22:43.976Z,3.85
2023-01-12T21:25:16.774Z,3.60
2023-01-12T21:27:49.396Z,3.53
2023-01-12T21:30:22.281Z,3.47
2023-01-12T21:32:54.890Z,3.11
2023-01-12T21:35:27.488Z,3.10
2023-01-12T21:38:00.274Z,3.08
2023-01-12T21:40:33.021Z,2.99
2023-01-12T21:43:05.604Z,2.63
2023-01-12T21:45:42.268Z,2.83
2023-01-12T21:48:17.488Z,2.86
2023-01-12T21:50:50.259Z,2.77
2023-01-12T21:53:22.836Z,2.90
2023-01-12T21:55:58.308Z,2.77
2023-01-12T21:58:34.241Z,2.84
2023-01-12T22:01:12.040Z,2.68
2023-01-12T22:03:44.827Z,2.63
2023-01-12T22:06:17.431Z,2.58
2023-01-12T22:08:50.034Z,2.60
2023-01-12T22:11:22.731Z,2.70
2023-01-12T22:13:55.348Z,2.78
2023-01-12T22:16:27.959Z,2.50
2023-01-12T22:19:00.707Z,2.64
2023-01-12T22:21:33.368Z,2.73
2023-01-12T22:24:06.677Z,2.70
2023-01-12T22:26:39.305Z,2.91
2023-01-12T22:29:11.903Z,2.67
2023-01-12T22:31:44.591Z,3.09
2023-01-12T22:34:17.229Z,2.88
2023-01-12T22:36:49.897Z,3.10
2023-01-12T22:39:22.492Z,2.94
2023-01-12T22:41:55.120Z,2.94
2023-01-12T22:44:27.742Z,2.83
2023-01-12T22:47:00.326Z,2.85
2023-01-12T22:49:32.930Z,2.62
2023-01-12T22:52:05.980Z,2.82
2023-01-12T22:54:38.534Z,2.85
2023-01-12T22:57:11.098Z,2.84
2023-01-12T22:59:43.701Z,2.59
2023-01-12T23:02:16.414Z,2.47
2023-01-12T23:04:49.074Z,2.62
2023-01-12T23:07:21.952Z,2.63
2023-01-12T23:09:54.578Z,2.60
2023-01-12T23:12:27.210Z,2.48
2023-01-12T23:14:59.823Z,2.37
2023-01-12T23:17:32.736Z,2.50
2023-01-12T23:20:06.005Z,2.30
2023-01-12T23:22:38.606Z,2.41
2023-01-12T23:25:11.237Z,2.15
2023-01-12T23:27:43.916Z,2.33
2023-01-12T23:30:16.723Z,2.19
2023-01-12T23:32:49.360Z,2.28
2023-01-12T23:35:22.127Z,1.91
2023-01-12T23:37:54.869Z,2.30
2023-01-12T23:40:27.805Z,2.15
2023-01-12T23:43:02.765Z,2.41
2023-01-12T23:45:35.413Z,2.40
2023-01-12T23:48:08.203Z,2.29
2023-01-12T23:50:40.820Z,2.23
2023-01-12T23:53:13.441Z,2.21
2023-01-12T23:55:46.054Z,2.06
2023-01-12T23:58:18.782Z,2.02
